sensor_id;sensor_type;location;lat;lon;timestamp;P1;durP1;ratioP1;P2;durP2;ratioP2
31112;SDS011;17763;48.730;9.136;2022-10-16T00:00:34;2.00;;;1.67;;
31112;SDS011;17763;48.730;9.136;2022-10-16T00:03:04;1.58;;;1.48;;
31112;SDS011;17763;48.730;9.136;2022-10-16T00:08:05;4.68;;;1.83;;
31112;SDS011;17763;48.730;9.136;2022-10-16T00:10:33;2.65;;;1.80;;
31112;SDS011;17763;48.730;9.136;2022-10-16T00:12:59;2.72;;;1.63;;
31112;SDS011;17763;48.730;9.136;2022-10-16T00:15:24;1.73;;;1.50;;
31112;SDS011;17763;48.730;9.136;2022-10-16T00:17:50;1.48;;;1.38;;
31112;SDS011;17763;48.730;9.136;2022-10-16T00:20:16;1.30;;;1.20;;
31112;SDS011;17763;48.730;9.136;2022-10-16T00:22:42;1.70;;;1.60;;
31112;SDS011;17763;48.730;9.136;2022-10-16T00:25:07;2.25;;;1.80;;
31112;SDS011;17763;48.730;9.136;2022-10-16T00:27:33;2.10;;;1.90;;
31112;SDS011;17763;48.730;9.136;2022-10-16T00:29:59;1.92;;;1.83;;
31112;SDS011;17763;48.730;9.136;2022-10-16T00:32:25;1.80;;;1.60;;
31112;SDS011;17763;48.730;9.136;2022-10-16T00:34:53;2.03;;;1.83;;
31112;SDS011;17763;48.730;9.136;2022-10-16T00:37:19;5.85;;;1.73;;
31112;SDS011;17763;48.730;9.136;2022-10-16T00:39:45;1.63;;;1.40;;
31112;SDS011;17763;48.730;9.136;2022-10-16T00:42:15;2.10;;;1.90;;
31112;SDS011;17763;48.730;9.136;2022-10-16T00:47:10;2.33;;;1.90;;
31112;SDS011;17763;48.730;9.136;2022-10-16T00:49:42;2.33;;;2.13;;
31112;SDS011;17763;48.730;9.136;2022-10-16T00:52:08;1.70;;;1.50;;
31112;SDS011;17763;48.730;9.136;2022-10-16T00:54:40;1.60;;;1.40;;
31112;SDS011;17763;48.730;9.136;2022-10-16T00:57:08;1.92;;;1.83;;
31112;SDS011;17763;48.730;9.136;2022-10-16T00:59:38;2.13;;;1.90;;
31112;SDS011;17763;48.730;9.136;2022-10-16T01:02:09;1.83;;;1.73;;
31112;SDS011;17763;48.730;9.136;2022-10-16T01:04:44;3.40;;;1.90;;
31112;SDS011;17763;48.730;9.136;2022-10-16T01:13:21;4.53;;;1.80;;
31112;SDS011;17763;48.730;9.136;2022-10-16T01:18:28;3.50;;;1.88;;
31112;SDS011;17763;48.730;9.136;2022-10-16T01:24:31;1.90;;;1.80;;
31112;SDS011;17763;48.730;9.136;2022-10-16T01:32:14;4.15;;;1.70;;
31112;SDS011;17763;48.730;9.136;2022-10-16T01:37:51;2.38;;;2.05;;
31112;SDS011;17763;48.730;9.136;2022-10-16T01:40:24;2.50;;;2.13;;
31112;SDS011;17763;48.730;9.136;2022-10-16T01:42:56;4.05;;;2.78;;
31112;SDS011;17763;48.730;9.136;2022-10-16T01:45:25;3.08;;;2.78;;
31112;SDS011;17763;48.730;9.136;2022-10-16T01:47:55;4.57;;;3.00;;
31112;SDS011;17763;48.730;9.136;2022-10-16T01:50:23;3.35;;;2.47;;
31112;SDS011;17763;48.730;9.136;2022-10-16T01:52:52;4.53;;;2.80;;
31112;SDS011;17763;48.730;9.136;2022-10-16T01:55:30;2.92;;;2.72;;
31112;SDS011;17763;48.730;9.136;2022-10-16T01:58:02;4.93;;;2.65;;
31112;SDS011;17763;48.730;9.136;2022-10-16T02:00:32;4.55;;;3.03;;
31112;SDS011;17763;48.730;9.136;2022-10-16T02:02:59;2.63;;;2.42;;
31112;SDS011;17763;48.730;9.136;2022-10-16T02:05:46;2.50;;;2.30;;
31112;SDS011;17763;48.730;9.136;2022-10-16T02:08:20;2.33;;;2.13;;
31112;SDS011;17763;48.730;9.136;2022-10-16T02:10:47;2.00;;;1.73;;
31112;SDS011;17763;48.730;9.136;2022-10-16T02:13:15;3.55;;;2.00;;
31112;SDS011;17763;48.730;9.136;2022-10-16T02:15:46;3.55;;;1.60;;
31112;SDS011;17763;48.730;9.136;2022-10-16T02:18:12;3.53;;;2.10;;
31112;SDS011;17763;48.730;9.136;2022-10-16T02:20:52;1.92;;;1.80;;
31112;SDS011;17763;48.730;9.136;2022-10-16T02:23:25;4.90;;;1.92;;
31112;SDS011;17763;48.730;9.136;2022-10-16T02:26:08;1.63;;;1.52;;
31112;SDS011;17763;48.730;9.136;2022-10-16T02:28:40;1.70;;;1.60;;
31112;SDS011;17763;48.730;9.136;2022-10-16T02:31:16;2.03;;;1.75;;
31112;SDS011;17763;48.730;9.136;2022-10-16T02:33:50;3.30;;;1.52;;
31112;SDS011;17763;48.730;9.136;2022-10-16T02:36:17;2.45;;;1.70;;
31112;SDS011;17763;48.730;9.136;2022-10-16T02:38:43;2.65;;;1.52;;
31112;SDS011;17763;48.730;9.136;2022-10-16T02:41:10;3.20;;;2.05;;
31112;SDS011;17763;48.730;9.136;2022-10-16T02:43:39;6.22;;;1.90;;
31112;SDS011;17763;48.730;9.136;2022-10-16T02:46:04;1.90;;;1.50;;
31112;SDS011;17763;48.730;9.136;2022-10-16T02:48:32;2.35;;;1.80;;
31112;SDS011;17763;48.730;9.136;2022-10-16T02:50:58;3.50;;;1.50;;
31112;SDS011;17763;48.730;9.136;2022-10-16T02:53:24;1.70;;;1.60;;
31112;SDS011;17763;48.730;9.136;2022-10-16T02:55:52;3.20;;;1.30;;
31112;SDS011;17763;48.730;9.136;2022-10-16T02:58:19;3.55;;;1.40;;
31112;SDS011;17763;48.730;9.136;2022-10-16T03:00:46;2.03;;;1.48;;
31112;SDS011;17763;48.730;9.136;2022-10-16T03:03:12;4.07;;;1.70;;
31112;SDS011;17763;48.730;9.136;2022-10-16T03:05:40;5.38;;;1.52;;
31112;SDS011;17763;48.730;9.136;2022-10-16T03:08:05;1.77;;;1.60;;
31112;SDS011;17763;48.730;9.136;2022-10-16T03:10:31;2.05;;;1.48;;
31112;SDS011;17763;48.730;9.136;2022-10-16T03:12:56;1.70;;;1.60;;
31112;SDS011;17763;48.730;9.136;2022-10-16T03:15:22;1.75;;;1.65;;
31112;SDS011;17763;48.730;9.136;2022-10-16T03:17:48;2.47;;;1.85;;
31112;SDS011;17763;48.730;9.136;2022-10-16T03:20:13;3.17;;;1.80;;
31112;SDS011;17763;48.730;9.136;2022-10-16T03:22:39;2.10;;;1.75;;
31112;SDS011;17763;48.730;9.136;2022-10-16T03:25:05;1.85;;;1.40;;
31112;SDS011;17763;48.730;9.136;2022-10-16T03:27:33;4.75;;;1.55;;
31112;SDS011;17763;48.730;9.136;2022-10-16T03:29:59;2.90;;;1.40;;
31112;SDS011;17763;48.730;9.136;2022-10-16T03:32:27;3.75;;;1.52;;
31112;SDS011;17763;48.730;9.136;2022-10-16T03:34:53;1.60;;;1.50;;
31112;SDS011;17763;48.730;9.136;2022-10-16T03:37:21;3.25;;;1.60;;
31112;SDS011;17763;48.730;9.136;2022-10-16T03:39:46;1.15;;;1.15;;
31112;SDS011;17763;48.730;9.136;2022-10-16T03:42:12;2.92;;;1.58;;
31112;SDS011;17763;48.730;9.136;2022-10-16T03:44:38;1.40;;;1.30;;
31112;SDS011;17763;48.730;9.136;2022-10-16T03:47:03;3.33;;;1.45;;
31112;SDS011;17763;48.730;9.136;2022-10-16T03:49:29;2.72;;;1.40;;
31112;SDS011;17763;48.730;9.136;2022-10-16T03:51:54;1.58;;;1.40;;
31112;SDS011;17763;48.730;9.136;2022-10-16T03:54:20;1.90;;;1.42;;
31112;SDS011;17763;48.730;9.136;2022-10-16T03:56:47;2.58;;;1.88;;
31112;SDS011;17763;48.730;9.136;2022-10-16T03:59:13;1.77;;;1.67;;
31112;SDS011;17763;48.730;9.136;2022-10-16T04:01:38;11.73;;;2.42;;
31112;SDS011;17763;48.730;9.136;2022-10-16T04:04:04;2.58;;;1.63;;
31112;SDS011;17763;48.730;9.136;2022-10-16T04:06:30;2.75;;;1.50;;
31112;SDS011;17763;48.730;9.136;2022-10-16T04:08:57;2.40;;;1.50;;
31112;SDS011;17763;48.730;9.136;2022-10-16T04:11:28;2.85;;;1.75;;
31112;SDS011;17763;48.730;9.136;2022-10-16T04:13:53;3.72;;;1.63;;
31112;SDS011;17763;48.730;9.136;2022-10-16T04:16:19;3.38;;;2.10;;
31112;SDS011;17763;48.730;9.136;2022-10-16T04:18:45;4.50;;;1.80;;
31112;SDS011;17763;48.730;9.136;2022-10-16T04:21:10;3.53;;;1.95;;
31112;SDS011;17763;48.730;9.136;2022-10-16T04:23:36;6.40;;;3.33;;
31112;SDS011;17763;48.730;9.136;2022-10-16T04:26:02;2.38;;;1.70;;
31112;SDS011;17763;48.730;9.136;2022-10-16T04:28:27;4.90;;;1.60;;
31112;SDS011;17763;48.730;9.136;2022-10-16T04:30:55;3.15;;;2.05;;
31112;SDS011;17763;48.730;9.136;2022-10-16T04:33:23;4.43;;;1.73;;
31112;SDS011;17763;48.730;9.136;2022-10-16T04:35:55;3.25;;;1.80;;
31112;SDS011;17763;48.730;9.136;2022-10-16T04:38:24;2.40;;;1.70;;
31112;SDS011;17763;48.730;9.136;2022-10-16T04:40:50;2.05;;;1.60;;
31112;SDS011;17763;48.730;9.136;2022-10-16T04:43:15;3.15;;;2.22;;
31112;SDS011;17763;48.730;9.136;2022-10-16T04:45:41;2.65;;;1.60;;
31112;SDS011;17763;48.730;9.136;2022-10-16T04:48:06;2.17;;;1.60;;
31112;SDS011;17763;48.730;9.136;2022-10-16T04:50:32;3.50;;;1.70;;
31112;SDS011;17763;48.730;9.136;2022-10-16T04:52:58;1.73;;;1.55;;
31112;SDS011;17763;48.730;9.136;2022-10-16T04:55:23;2.78;;;1.70;;
31112;SDS011;17763;48.730;9.136;2022-10-16T04:57:49;1.52;;;1.42;;
31112;SDS011;17763;48.730;9.136;2022-10-16T05:00:14;3.55;;;1.60;;
31112;SDS011;17763;48.730;9.136;2022-10-16T05:02:40;2.10;;;1.70;;
31112;SDS011;17763;48.730;9.136;2022-10-16T05:05:08;2.28;;;1.30;;
31112;SDS011;17763;48.730;9.136;2022-10-16T05:07:34;2.67;;;1.30;;
31112;SDS011;17763;48.730;9.136;2022-10-16T05:10:02;1.45;;;1.23;;
31112;SDS011;17763;48.730;9.136;2022-10-16T05:12:28;3.88;;;1.30;;
31112;SDS011;17763;48.730;9.136;2022-10-16T05:14:54;3.50;;;1.33;;
31112;SDS011;17763;48.730;9.136;2022-10-16T05:17:23;2.35;;;1.55;;
31112;SDS011;17763;48.730;9.136;2022-10-16T05:19:50;2.95;;;1.67;;
31112;SDS011;17763;48.730;9.136;2022-10-16T05:22:15;4.20;;;1.60;;
31112;SDS011;17763;48.730;9.136;2022-10-16T05:24:41;5.60;;;2.13;;
31112;SDS011;17763;48.730;9.136;2022-10-16T05:27:09;2.58;;;1.70;;
31112;SDS011;17763;48.730;9.136;2022-10-16T05:29:36;1.85;;;1.67;;
31112;SDS011;17763;48.730;9.136;2022-10-16T05:32:02;1.50;;;1.40;;
31112;SDS011;17763;48.730;9.136;2022-10-16T05:34:27;2.17;;;1.30;;
31112;SDS011;17763;48.730;9.136;2022-10-16T05:36:55;2.90;;;1.23;;
31112;SDS011;17763;48.730;9.136;2022-10-16T05:39:24;2.17;;;1.20;;
31112;SDS011;17763;48.730;9.136;2022-10-16T05:41:49;2.00;;;1.48;;
31112;SDS011;17763;48.730;9.136;2022-10-16T05:44:15;5.78;;;1.60;;
31112;SDS011;17763;48.730;9.136;2022-10-16T05:46:41;2.60;;;1.45;;
31112;SDS011;17763;48.730;9.136;2022-10-16T05:49:06;2.25;;;1.40;;
31112;SDS011;17763;48.730;9.136;2022-10-16T05:51:32;1.60;;;1.50;;
31112;SDS011;17763;48.730;9.136;2022-10-16T05:53:58;2.13;;;1.35;;
31112;SDS011;17763;48.730;9.136;2022-10-16T05:56:26;2.15;;;1.20;;
31112;SDS011;17763;48.730;9.136;2022-10-16T05:58:51;2.88;;;1.50;;
31112;SDS011;17763;48.730;9.136;2022-10-16T06:01:17;1.48;;;1.38;;
31112;SDS011;17763;48.730;9.136;2022-10-16T06:03:44;1.40;;;1.30;;
31112;SDS011;17763;48.730;9.136;2022-10-16T06:06:31;2.08;;;1.50;;
31112;SDS011;17763;48.730;9.136;2022-10-16T06:08:56;4.30;;;1.50;;
31112;SDS011;17763;48.730;9.136;2022-10-16T06:11:23;2.25;;;1.58;;
31112;SDS011;17763;48.730;9.136;2022-10-16T06:13:50;1.95;;;1.85;;
31112;SDS011;17763;48.730;9.136;2022-10-16T06:16:17;2.55;;;1.70;;
31112;SDS011;17763;48.730;9.136;2022-10-16T06:18:46;1.55;;;1.45;;
31112;SDS011;17763;48.730;9.136;2022-10-16T06:21:15;4.13;;;1.70;;
31112;SDS011;17763;48.730;9.136;2022-10-16T06:23:43;7.63;;;1.80;;
31112;SDS011;17763;48.730;9.136;2022-10-16T06:26:11;2.05;;;1.85;;
31112;SDS011;17763;48.730;9.136;2022-10-16T06:28:39;2.00;;;1.70;;
31112;SDS011;17763;48.730;9.136;2022-10-16T06:31:05;4.15;;;2.25;;
31112;SDS011;17763;48.730;9.136;2022-10-16T06:33:32;2.65;;;1.52;;
31112;SDS011;17763;48.730;9.136;2022-10-16T06:36:05;4.47;;;1.70;;
31112;SDS011;17763;48.730;9.136;2022-10-16T06:38:33;2.08;;;1.95;;
31112;SDS011;17763;48.730;9.136;2022-10-16T06:40:58;2.88;;;1.80;;
31112;SDS011;17763;48.730;9.136;2022-10-16T06:43:24;3.20;;;1.90;;
31112;SDS011;17763;48.730;9.136;2022-10-16T06:45:54;2.80;;;1.70;;
31112;SDS011;17763;48.730;9.136;2022-10-16T06:48:20;2.35;;;2.05;;
31112;SDS011;17763;48.730;9.136;2022-10-16T06:53:24;4.15;;;1.80;;
31112;SDS011;17763;48.730;9.136;2022-10-16T06:55:51;4.65;;;2.00;;
31112;SDS011;17763;48.730;9.136;2022-10-16T06:58:16;1.52;;;1.42;;
31112;SDS011;17763;48.730;9.136;2022-10-16T07:00:42;3.40;;;2.05;;
31112;SDS011;17763;48.730;9.136;2022-10-16T07:03:08;2.45;;;1.80;;
31112;SDS011;17763;48.730;9.136;2022-10-16T07:05:37;4.70;;;2.15;;
31112;SDS011;17763;48.730;9.136;2022-10-16T07:08:08;2.25;;;2.05;;
31112;SDS011;17763;48.730;9.136;2022-10-16T07:10:34;1.88;;;1.77;;
31112;SDS011;17763;48.730;9.136;2022-10-16T07:13:00;1.90;;;1.80;;
31112;SDS011;17763;48.730;9.136;2022-10-16T07:15:26;4.00;;;1.70;;
31112;SDS011;17763;48.730;9.136;2022-10-16T07:17:55;2.13;;;1.58;;
31112;SDS011;17763;48.730;9.136;2022-10-16T07:20:22;2.30;;;2.10;;
31112;SDS011;17763;48.730;9.136;2022-10-16T07:22:48;1.88;;;1.77;;
31112;SDS011;17763;48.730;9.136;2022-10-16T07:25:16;2.13;;;1.67;;
31112;SDS011;17763;48.730;9.136;2022-10-16T07:27:42;2.40;;;1.73;;
31112;SDS011;17763;48.730;9.136;2022-10-16T07:30:07;2.92;;;1.80;;
31112;SDS011;17763;48.730;9.136;2022-10-16T07:32:33;3.38;;;1.75;;
31112;SDS011;17763;48.730;9.136;2022-10-16T07:34:59;4.25;;;1.80;;
31112;SDS011;17763;48.730;9.136;2022-10-16T07:37:24;1.70;;;1.60;;
31112;SDS011;17763;48.730;9.136;2022-10-16T07:39:50;2.33;;;2.10;;
31112;SDS011;17763;48.730;9.136;2022-10-16T07:42:18;4.63;;;2.22;;
31112;SDS011;17763;48.730;9.136;2022-10-16T07:44:45;4.55;;;2.60;;
31112;SDS011;17763;48.730;9.136;2022-10-16T07:47:10;2.58;;;1.80;;
31112;SDS011;17763;48.730;9.136;2022-10-16T07:49:38;7.68;;;2.90;;
31112;SDS011;17763;48.730;9.136;2022-10-16T07:52:04;3.53;;;2.08;;
31112;SDS011;17763;48.730;9.136;2022-10-16T07:54:29;4.53;;;2.15;;
31112;SDS011;17763;48.730;9.136;2022-10-16T07:56:55;2.45;;;1.88;;
31112;SDS011;17763;48.730;9.136;2022-10-16T07:59:20;2.60;;;1.50;;
31112;SDS011;17763;48.730;9.136;2022-10-16T08:01:48;2.05;;;1.50;;
31112;SDS011;17763;48.730;9.136;2022-10-16T08:04:17;3.05;;;1.55;;
31112;SDS011;17763;48.730;9.136;2022-10-16T08:06:43;1.50;;;1.40;;
31112;SDS011;17763;48.730;9.136;2022-10-16T08:09:09;5.72;;;1.88;;
31112;SDS011;17763;48.730;9.136;2022-10-16T08:11:34;1.60;;;1.50;;
31112;SDS011;17763;48.730;9.136;2022-10-16T08:14:00;2.88;;;1.23;;
31112;SDS011;17763;48.730;9.136;2022-10-16T08:16:26;3.75;;;1.40;;
31112;SDS011;17763;48.730;9.136;2022-10-16T08:18:51;2.05;;;1.60;;
31112;SDS011;17763;48.730;9.136;2022-10-16T08:21:22;2.13;;;1.30;;
31112;SDS011;17763;48.730;9.136;2022-10-16T08:23:48;4.03;;;1.42;;
31112;SDS011;17763;48.730;9.136;2022-10-16T08:26:15;2.13;;;1.30;;
31112;SDS011;17763;48.730;9.136;2022-10-16T08:28:45;6.30;;;2.25;;
31112;SDS011;17763;48.730;9.136;2022-10-16T08:31:14;6.20;;;1.23;;
31112;SDS011;17763;48.730;9.136;2022-10-16T08:33:41;3.55;;;1.40;;
31112;SDS011;17763;48.730;9.136;2022-10-16T08:36:09;1.75;;;1.33;;
31112;SDS011;17763;48.730;9.136;2022-10-16T08:38:36;2.20;;;2.00;;
31112;SDS011;17763;48.730;9.136;2022-10-16T08:49:30;3.03;;;1.17;;
31112;SDS011;17763;48.730;9.136;2022-10-16T08:51:56;1.67;;;1.20;;
31112;SDS011;17763;48.730;9.136;2022-10-16T08:54:32;1.42;;;1.05;;
31112;SDS011;17763;48.730;9.136;2022-10-16T08:57:13;1.80;;;1.08;;
31112;SDS011;17763;48.730;9.136;2022-10-16T08:59:44;2.78;;;1.40;;
31112;SDS011;17763;48.730;9.136;2022-10-16T09:02:31;5.25;;;1.50;;
31112;SDS011;17763;48.730;9.136;2022-10-16T09:05:02;2.33;;;1.80;;
31112;SDS011;17763;48.730;9.136;2022-10-16T09:13:19;3.42;;;1.30;;
31112;SDS011;17763;48.730;9.136;2022-10-16T09:16:22;2.03;;;1.48;;
31112;SDS011;17763;48.730;9.136;2022-10-16T09:21:39;2.42;;;1.33;;
31112;SDS011;17763;48.730;9.136;2022-10-16T09:24:15;1.70;;;1.60;;
31112;SDS011;17763;48.730;9.136;2022-10-16T09:26:50;1.30;;;1.20;;
31112;SDS011;17763;48.730;9.136;2022-10-16T09:29:16;1.55;;;1.38;;
31112;SDS011;17763;48.730;9.136;2022-10-16T09:31:45;2.10;;;1.08;;
31112;SDS011;17763;48.730;9.136;2022-10-16T09:36:49;4.15;;;1.55;;
31112;SDS011;17763;48.730;9.136;2022-10-16T09:39:15;4.32;;;1.60;;
31112;SDS011;17763;48.730;9.136;2022-10-16T09:41:42;6.18;;;1.63;;
31112;SDS011;17763;48.730;9.136;2022-10-16T09:44:16;3.10;;;1.42;;
31112;SDS011;17763;48.730;9.136;2022-10-16T09:47:05;4.15;;;1.60;;
31112;SDS011;17763;48.730;9.136;2022-10-16T09:49:55;2.28;;;1.73;;
31112;SDS011;17763;48.730;9.136;2022-10-16T09:52:24;3.10;;;1.17;;
31112;SDS011;17763;48.730;9.136;2022-10-16T09:57:16;2.05;;;1.15;;
31112;SDS011;17763;48.730;9.136;2022-10-16T09:59:48;2.85;;;1.20;;
31112;SDS011;17763;48.730;9.136;2022-10-16T10:02:16;1.35;;;1.25;;
31112;SDS011;17763;48.730;9.136;2022-10-16T10:04:47;2.70;;;1.00;;
31112;SDS011;17763;48.730;9.136;2022-10-16T10:07:26;1.42;;;1.10;;
31112;SDS011;17763;48.730;9.136;2022-10-16T10:09:58;3.58;;;1.52;;
31112;SDS011;17763;48.730;9.136;2022-10-16T10:12:28;2.08;;;1.10;;
31112;SDS011;17763;48.730;9.136;2022-10-16T10:14:58;3.58;;;1.45;;
31112;SDS011;17763;48.730;9.136;2022-10-16T10:17:31;3.72;;;1.50;;
31112;SDS011;17763;48.730;9.136;2022-10-16T10:19:58;1.70;;;1.20;;
31112;SDS011;17763;48.730;9.136;2022-10-16T10:35:39;4.60;;;1.33;;
31112;SDS011;17763;48.730;9.136;2022-10-16T10:38:25;3.92;;;3.40;;
31112;SDS011;17763;48.730;9.136;2022-10-16T10:41:10;4.88;;;2.17;;
31112;SDS011;17763;48.730;9.136;2022-10-16T10:43:56;6.88;;;2.80;;
31112;SDS011;17763;48.730;9.136;2022-10-16T10:55:40;3.72;;;1.02;;
31112;SDS011;17763;48.730;9.136;2022-10-16T11:01:33;1.13;;;1.02;;
31112;SDS011;17763;48.730;9.136;2022-10-16T11:06:59;2.75;;;1.40;;
31112;SDS011;17763;48.730;9.136;2022-10-16T11:09:33;7.22;;;1.48;;
31112;SDS011;17763;48.730;9.136;2022-10-16T11:12:05;3.72;;;1.40;;
31112;SDS011;17763;48.730;9.136;2022-10-16T11:15:04;4.22;;;1.00;;
31112;SDS011;17763;48.730;9.136;2022-10-16T11:17:44;5.75;;;1.38;;
31112;SDS011;17763;48.730;9.136;2022-10-16T11:20:43;3.60;;;1.00;;
31112;SDS011;17763;48.730;9.136;2022-10-16T11:23:27;1.30;;;1.08;;
31112;SDS011;17763;48.730;9.136;2022-10-16T11:26:00;3.17;;;1.40;;
31112;SDS011;17763;48.730;9.136;2022-10-16T11:38:58;1.30;;;1.20;;
31112;SDS011;17763;48.730;9.136;2022-10-16T11:41:57;2.08;;;0.98;;
31112;SDS011;17763;48.730;9.136;2022-10-16T11:47:27;3.75;;;1.50;;
31112;SDS011;17763;48.730;9.136;2022-10-16T11:50:09;2.55;;;1.30;;
31112;SDS011;17763;48.730;9.136;2022-10-16T11:52:49;2.53;;;1.27;;
31112;SDS011;17763;48.730;9.136;2022-10-16T11:55:31;1.25;;;1.08;;
31112;SDS011;17763;48.730;9.136;2022-10-16T11:58:08;3.58;;;1.23;;
31112;SDS011;17763;48.730;9.136;2022-10-16T12:01:06;4.55;;;1.60;;
31112;SDS011;17763;48.730;9.136;2022-10-16T12:09:26;2.20;;;1.20;;
31112;SDS011;17763;48.730;9.136;2022-10-16T12:11:54;1.55;;;1.20;;
31112;SDS011;17763;48.730;9.136;2022-10-16T12:17:00;1.17;;;1.08;;
31112;SDS011;17763;48.730;9.136;2022-10-16T12:21:57;1.80;;;1.25;;
31112;SDS011;17763;48.730;9.136;2022-10-16T12:30:03;1.45;;;1.15;;
31112;SDS011;17763;48.730;9.136;2022-10-16T12:32:38;1.55;;;1.20;;
31112;SDS011;17763;48.730;9.136;2022-10-16T12:35:05;1.20;;;1.00;;
31112;SDS011;17763;48.730;9.136;2022-10-16T12:37:43;2.00;;;1.20;;
31112;SDS011;17763;48.730;9.136;2022-10-16T12:40:13;2.33;;;1.30;;
31112;SDS011;17763;48.730;9.136;2022-10-16T12:42:41;1.77;;;1.20;;
31112;SDS011;17763;48.730;9.136;2022-10-16T12:47:53;1.85;;;1.40;;
31112;SDS011;17763;48.730;9.136;2022-10-16T12:50:24;1.98;;;1.38;;
31112;SDS011;17763;48.730;9.136;2022-10-16T12:52:52;3.22;;;1.38;;
31112;SDS011;17763;48.730;9.136;2022-10-16T12:55:19;1.98;;;1.00;;
31112;SDS011;17763;48.730;9.136;2022-10-16T12:58:20;1.25;;;1.15;;
31112;SDS011;17763;48.730;9.136;2022-10-16T13:18:14;4.65;;;1.75;;
31112;SDS011;17763;48.730;9.136;2022-10-16T13:26:21;1.63;;;1.40;;
31112;SDS011;17763;48.730;9.136;2022-10-16T13:29:30;1.25;;;1.00;;
31112;SDS011;17763;48.730;9.136;2022-10-16T13:31:57;1.38;;;1.27;;
31112;SDS011;17763;48.730;9.136;2022-10-16T13:34:25;1.67;;;1.20;;
31112;SDS011;17763;48.730;9.136;2022-10-16T13:36:54;3.10;;;1.40;;
31112;SDS011;17763;48.730;9.136;2022-10-16T13:39:26;2.72;;;1.55;;
31112;SDS011;17763;48.730;9.136;2022-10-16T13:44:38;1.33;;;1.23;;
31112;SDS011;17763;48.730;9.136;2022-10-16T13:47:19;3.70;;;1.35;;
31112;SDS011;17763;48.730;9.136;2022-10-16T13:50:00;1.75;;;1.48;;
31112;SDS011;17763;48.730;9.136;2022-10-16T13:52:42;2.33;;;1.50;;
31112;SDS011;17763;48.730;9.136;2022-10-16T13:57:41;1.40;;;1.30;;
31112;SDS011;17763;48.730;9.136;2022-10-16T14:00:24;2.72;;;1.40;;
31112;SDS011;17763;48.730;9.136;2022-10-16T14:03:12;1.50;;;1.40;;
31112;SDS011;17763;48.730;9.136;2022-10-16T14:05:45;2.13;;;1.65;;
31112;SDS011;17763;48.730;9.136;2022-10-16T14:08:14;1.60;;;1.50;;
31112;SDS011;17763;48.730;9.136;2022-10-16T14:10:40;1.67;;;1.38;;
31112;SDS011;17763;48.730;9.136;2022-10-16T14:13:06;2.25;;;1.80;;
31112;SDS011;17763;48.730;9.136;2022-10-16T14:15:35;2.75;;;1.38;;
31112;SDS011;17763;48.730;9.136;2022-10-16T14:18:02;3.20;;;1.70;;
31112;SDS011;17763;48.730;9.136;2022-10-16T14:20:29;2.50;;;1.50;;
31112;SDS011;17763;48.730;9.136;2022-10-16T14:23:02;1.63;;;1.42;;
31112;SDS011;17763;48.730;9.136;2022-10-16T14:25:30;2.00;;;1.80;;
31112;SDS011;17763;48.730;9.136;2022-10-16T14:28:00;1.20;;;1.20;;
31112;SDS011;17763;48.730;9.136;2022-10-16T14:30:26;3.35;;;1.70;;
31112;SDS011;17763;48.730;9.136;2022-10-16T14:33:03;1.38;;;1.23;;
31112;SDS011;17763;48.730;9.136;2022-10-16T14:37:58;1.60;;;1.50;;
31112;SDS011;17763;48.730;9.136;2022-10-16T14:40:32;2.83;;;1.35;;
31112;SDS011;17763;48.730;9.136;2022-10-16T14:43:02;3.75;;;1.60;;
31112;SDS011;17763;48.730;9.136;2022-10-16T14:45:33;2.40;;;1.40;;
31112;SDS011;17763;48.730;9.136;2022-10-16T14:48:01;1.58;;;1.48;;
31112;SDS011;17763;48.730;9.136;2022-10-16T14:50:39;2.38;;;1.50;;
31112;SDS011;17763;48.730;9.136;2022-10-16T14:53:11;2.03;;;1.85;;
31112;SDS011;17763;48.730;9.136;2022-10-16T14:55:38;2.13;;;1.92;;
31112;SDS011;17763;48.730;9.136;2022-10-16T14:58:07;3.00;;;1.60;;
31112;SDS011;17763;48.730;9.136;2022-10-16T15:00:39;4.28;;;1.80;;
31112;SDS011;17763;48.730;9.136;2022-10-16T15:03:05;2.08;;;1.48;;
31112;SDS011;17763;48.730;9.136;2022-10-16T15:05:36;2.67;;;1.48;;
31112;SDS011;17763;48.730;9.136;2022-10-16T15:08:04;1.80;;;1.70;;
31112;SDS011;17763;48.730;9.136;2022-10-16T15:10:30;2.22;;;1.60;;
31112;SDS011;17763;48.730;9.136;2022-10-16T15:12:58;2.35;;;1.80;;
31112;SDS011;17763;48.730;9.136;2022-10-16T15:15:34;1.70;;;1.60;;
31112;SDS011;17763;48.730;9.136;2022-10-16T15:18:02;2.75;;;1.73;;
31112;SDS011;17763;48.730;9.136;2022-10-16T15:20:33;1.80;;;1.70;;
31112;SDS011;17763;48.730;9.136;2022-10-16T15:23:01;3.70;;;1.70;;
31112;SDS011;17763;48.730;9.136;2022-10-16T15:25:42;1.95;;;1.55;;
31112;SDS011;17763;48.730;9.136;2022-10-16T15:28:10;1.50;;;1.40;;
31112;SDS011;17763;48.730;9.136;2022-10-16T15:30:37;4.05;;;1.80;;
31112;SDS011;17763;48.730;9.136;2022-10-16T15:33:04;5.68;;;2.60;;
31112;SDS011;17763;48.730;9.136;2022-10-16T15:35:37;2.42;;;2.22;;
31112;SDS011;17763;48.730;9.136;2022-10-16T15:38:06;4.20;;;1.40;;
31112;SDS011;17763;48.730;9.136;2022-10-16T15:40:35;3.28;;;1.50;;
31112;SDS011;17763;48.730;9.136;2022-10-16T15:43:02;1.88;;;1.67;;
31112;SDS011;17763;48.730;9.136;2022-10-16T15:45:27;6.53;;;1.77;;
31112;SDS011;17763;48.730;9.136;2022-10-16T15:47:53;1.98;;;1.70;;
31112;SDS011;17763;48.730;9.136;2022-10-16T15:50:21;2.50;;;1.70;;
31112;SDS011;17763;48.730;9.136;2022-10-16T15:52:49;1.50;;;1.40;;
31112;SDS011;17763;48.730;9.136;2022-10-16T15:55:18;2.92;;;1.70;;
31112;SDS011;17763;48.730;9.136;2022-10-16T15:57:44;6.35;;;1.95;;
31112;SDS011;17763;48.730;9.136;2022-10-16T16:00:14;1.45;;;1.35;;
31112;SDS011;17763;48.730;9.136;2022-10-16T16:02:49;4.80;;;1.75;;
31112;SDS011;17763;48.730;9.136;2022-10-16T16:05:19;4.82;;;2.05;;
31112;SDS011;17763;48.730;9.136;2022-10-16T16:07:48;2.38;;;2.08;;
31112;SDS011;17763;48.730;9.136;2022-10-16T16:10:14;7.20;;;3.35;;
31112;SDS011;17763;48.730;9.136;2022-10-16T16:15:16;1.67;;;1.58;;
31112;SDS011;17763;48.730;9.136;2022-10-16T16:17:45;1.88;;;1.77;;
31112;SDS011;17763;48.730;9.136;2022-10-16T16:20:13;2.55;;;2.30;;
31112;SDS011;17763;48.730;9.136;2022-10-16T16:22:40;2.28;;;1.80;;
31112;SDS011;17763;48.730;9.136;2022-10-16T16:25:08;4.43;;;3.72;;
31112;SDS011;17763;48.730;9.136;2022-10-16T16:27:34;4.15;;;2.75;;
31112;SDS011;17763;48.730;9.136;2022-10-16T16:30:03;5.70;;;2.80;;
31112;SDS011;17763;48.730;9.136;2022-10-16T16:32:32;5.30;;;2.92;;
31112;SDS011;17763;48.730;9.136;2022-10-16T16:34:58;5.03;;;4.25;;
31112;SDS011;17763;48.730;9.136;2022-10-16T16:37:26;6.55;;;5.60;;
31112;SDS011;17763;48.730;9.136;2022-10-16T16:39:52;5.65;;;4.30;;
31112;SDS011;17763;48.730;9.136;2022-10-16T16:42:20;3.90;;;3.15;;
31112;SDS011;17763;48.730;9.136;2022-10-16T16:44:49;3.65;;;3.33;;
31112;SDS011;17763;48.730;9.136;2022-10-16T16:47:17;7.43;;;3.25;;
31112;SDS011;17763;48.730;9.136;2022-10-16T16:49:45;7.03;;;3.45;;
31112;SDS011;17763;48.730;9.136;2022-10-16T16:52:14;5.88;;;3.33;;
31112;SDS011;17763;48.730;9.136;2022-10-16T16:54:40;5.28;;;2.92;;
31112;SDS011;17763;48.730;9.136;2022-10-16T16:57:08;3.88;;;3.30;;
31112;SDS011;17763;48.730;9.136;2022-10-16T16:59:38;3.22;;;2.92;;
31112;SDS011;17763;48.730;9.136;2022-10-16T17:02:06;4.50;;;2.90;;
31112;SDS011;17763;48.730;9.136;2022-10-16T17:04:33;5.30;;;3.08;;
31112;SDS011;17763;48.730;9.136;2022-10-16T17:07:02;6.05;;;3.35;;
31112;SDS011;17763;48.730;9.136;2022-10-16T17:09:31;3.25;;;3.03;;
31112;SDS011;17763;48.730;9.136;2022-10-16T17:11:57;5.90;;;3.03;;
31112;SDS011;17763;48.730;9.136;2022-10-16T17:14:25;3.83;;;2.97;;
31112;SDS011;17763;48.730;9.136;2022-10-16T17:16:51;2.60;;;2.42;;
31112;SDS011;17763;48.730;9.136;2022-10-16T17:19:18;5.40;;;2.63;;
31112;SDS011;17763;48.730;9.136;2022-10-16T17:21:45;4.18;;;2.90;;
31112;SDS011;17763;48.730;9.136;2022-10-16T17:24:13;4.18;;;2.65;;
31112;SDS011;17763;48.730;9.136;2022-10-16T17:26:41;4.50;;;2.47;;